UAL1010 KORD-KEWR
Flight info
| Callsign | UAL1010 |
|---|---|
| Flight time | 1h 25m |
| Altitude | 37000 |
| Route | DUFEE ELX HAAKK DOXXY SOSIC KEEHO J584 SLT FQM3 |
| Aircraft | A321/M-SDE3FGHIRWY/LB1 |
Departure
| Time | 2026-05-08 03:38 |
|---|---|
| Airport | Chicago O'Hare International Airport (KORD) |
Arrival
| Time | 2026-05-08 05:03 |
|---|---|
| Airport | Newark Liberty International Airport (KEWR) |
| Time | Latitude | Longitude | Altitude | Speed | Heading |
|---|---|---|---|---|---|
| 2026-05-08 02:58 | 41.97723 | -87.91000 | 669 ft | 0 kts | 280° |
| 2026-05-08 03:23 | 41.97721 | -87.90987 | 669 ft | 4 kts | 275° |
| 2026-05-08 03:23 | 41.97723 | -87.90952 | 669 ft | 4 kts | 243° |
| 2026-05-08 03:23 | 41.97740 | -87.90927 | 667 ft | 4 kts | 204° |
| 2026-05-08 03:24 | 41.97762 | -87.90918 | 669 ft | 1 kts | 189° |
| 2026-05-08 03:29 | 41.97758 | -87.90919 | 669 ft | 2 kts | 189° |
| 2026-05-08 03:30 | 41.97653 | -87.90942 | 669 ft | 11 kts | 189° |
| 2026-05-08 03:30 | 41.97556 | -87.91116 | 669 ft | 14 kts | 241° |
| 2026-05-08 03:31 | 41.97443 | -87.91131 | 669 ft | 8 kts | 159° |
| 2026-05-08 03:31 | 41.97316 | -87.91251 | 667 ft | 15 kts | 231° |
| 2026-05-08 03:32 | 41.97257 | -87.91371 | 669 ft | 16 kts | 250° |
| 2026-05-08 03:32 | 41.97247 | -87.91528 | 669 ft | 18 kts | 269° |
| 2026-05-08 03:32 | 41.97245 | -87.91714 | 669 ft | 23 kts | 269° |
| 2026-05-08 03:32 | 41.97245 | -87.91956 | 669 ft | 27 kts | 269° |
| 2026-05-08 03:33 | 41.97244 | -87.92211 | 669 ft | 28 kts | 270° |
| 2026-05-08 03:33 | 41.97243 | -87.92471 | 669 ft | 28 kts | 269° |
| 2026-05-08 03:33 | 41.97244 | -87.92736 | 669 ft | 29 kts | 270° |
| 2026-05-08 03:33 | 41.97243 | -87.92996 | 669 ft | 26 kts | 270° |
| 2026-05-08 03:34 | 41.97198 | -87.93127 | 669 ft | 12 kts | 187° |
| 2026-05-08 03:34 | 41.97124 | -87.93131 | 669 ft | 9 kts | 180° |
| 2026-05-08 03:34 | 41.97051 | -87.93132 | 669 ft | 13 kts | 180° |
| 2026-05-08 03:35 | 41.97008 | -87.93132 | 670 ft | 0 kts | 180° |
| 2026-05-08 03:35 | 41.96930 | -87.93126 | 671 ft | 8 kts | 159° |
| 2026-05-08 03:36 | 41.96905 | -87.93081 | 671 ft | 0 kts | 105° |
| 2026-05-08 03:36 | 41.96905 | -87.93080 | 671 ft | 0 kts | 105° |
| 2026-05-08 03:36 | 41.96903 | -87.93067 | 671 ft | 3 kts | 101° |
| 2026-05-08 03:36 | 41.96902 | -87.93048 | 671 ft | 0 kts | 94° |
| 2026-05-08 03:37 | 41.96902 | -87.93047 | 671 ft | 1 kts | 94° |
| 2026-05-08 03:37 | 41.96901 | -87.93007 | 670 ft | 13 kts | 90° |
| 2026-05-08 03:37 | 41.96900 | -87.92548 | 667 ft | 89 kts | 90° |
| 2026-05-08 03:37 | 41.96899 | -87.91403 | 672 ft | 153 kts | 90° |
| 2026-05-08 03:38 | 41.96893 | -87.89837 | 1103 ft | 169 kts | 91° |
| 2026-05-08 03:38 | 41.96886 | -87.88292 | 1887 ft | 168 kts | 88° |
| 2026-05-08 03:38 | 41.96892 | -87.86689 | 2566 ft | 173 kts | 81° |
| 2026-05-08 03:38 | 41.97119 | -87.85066 | 3014 ft | 187 kts | 72° |
| 2026-05-08 03:39 | 41.97483 | -87.83299 | 3378 ft | 205 kts | 71° |
| 2026-05-08 03:39 | 41.97877 | -87.81392 | 3827 ft | 218 kts | 71° |
| 2026-05-08 03:39 | 41.98296 | -87.79324 | 4195 ft | 243 kts | 72° |
| 2026-05-08 03:39 | 41.98757 | -87.77026 | 4604 ft | 265 kts | 72° |
| 2026-05-08 03:40 | 41.99245 | -87.74545 | 5147 ft | 282 kts | 73° |
| 2026-05-08 03:40 | 41.99750 | -87.71928 | 5752 ft | 296 kts | 73° |
| 2026-05-08 03:40 | 42.00261 | -87.69224 | 6402 ft | 308 kts | 74° |
| 2026-05-08 03:40 | 42.00769 | -87.66453 | 7442 ft | 301 kts | 74° |
| 2026-05-08 03:41 | 42.01243 | -87.63739 | 8504 ft | 298 kts | 74° |
| 2026-05-08 03:41 | 42.01704 | -87.60972 | 9184 ft | 308 kts | 75° |
| 2026-05-08 03:41 | 42.02160 | -87.58117 | 9901 ft | 316 kts | 75° |
| 2026-05-08 03:41 | 42.02641 | -87.55200 | 10598 ft | 322 kts | 73° |
| 2026-05-08 03:42 | 42.03167 | -87.52223 | 11111 ft | 337 kts | 72° |
| 2026-05-08 03:42 | 42.03745 | -87.49054 | 11356 ft | 360 kts | 72° |
| 2026-05-08 03:42 | 42.04342 | -87.45777 | 11888 ft | 370 kts | 73° |
| 2026-05-08 03:42 | 42.04951 | -87.42385 | 12583 ft | 375 kts | 73° |
| 2026-05-08 03:43 | 42.05561 | -87.38949 | 13303 ft | 380 kts | 72° |
| 2026-05-08 03:43 | 42.06175 | -87.35463 | 13987 ft | 385 kts | 72° |
| 2026-05-08 03:43 | 42.06792 | -87.31935 | 14626 ft | 390 kts | 72° |
| 2026-05-08 03:43 | 42.07413 | -87.28368 | 15254 ft | 394 kts | 72° |
| 2026-05-08 03:44 | 42.08045 | -87.24759 | 15924 ft | 398 kts | 72° |
| 2026-05-08 03:44 | 42.08676 | -87.21164 | 16575 ft | 402 kts | 72° |
| 2026-05-08 03:44 | 42.09320 | -87.17483 | 17237 ft | 406 kts | 72° |
| 2026-05-08 03:44 | 42.09970 | -87.13760 | 17890 ft | 410 kts | 72° |
| 2026-05-08 03:45 | 42.10622 | -87.10001 | 18489 ft | 415 kts | 72° |
| 2026-05-08 03:45 | 42.11206 | -87.06169 | 19020 ft | 422 kts | 78° |
| 2026-05-08 03:45 | 42.11416 | -87.02184 | 19553 ft | 430 kts | 83° |
| 2026-05-08 03:45 | 42.11557 | -86.98144 | 20090 ft | 434 kts | 83° |
| 2026-05-08 03:46 | 42.11702 | -86.94114 | 20627 ft | 439 kts | 83° |
| 2026-05-08 03:46 | 42.11856 | -86.89945 | 21217 ft | 442 kts | 83° |
| 2026-05-08 03:46 | 42.12012 | -86.85850 | 21755 ft | 446 kts | 83° |
| 2026-05-08 03:46 | 42.12168 | -86.81659 | 22294 ft | 450 kts | 83° |
| 2026-05-08 03:47 | 42.12319 | -86.77431 | 22823 ft | 455 kts | 83° |
| 2026-05-08 03:47 | 42.12471 | -86.73152 | 23343 ft | 459 kts | 83° |
| 2026-05-08 03:47 | 42.12624 | -86.68836 | 23789 ft | 464 kts | 83° |
| 2026-05-08 03:47 | 42.12776 | -86.64481 | 24196 ft | 468 kts | 83° |
| 2026-05-08 03:48 | 42.12925 | -86.60083 | 24585 ft | 472 kts | 83° |
| 2026-05-08 03:48 | 42.13071 | -86.55710 | 25007 ft | 476 kts | 83° |
| 2026-05-08 03:48 | 42.13217 | -86.51247 | 25430 ft | 479 kts | 83° |
| 2026-05-08 03:48 | 42.13363 | -86.46747 | 25816 ft | 483 kts | 83° |
| 2026-05-08 03:49 | 42.13510 | -86.42213 | 26196 ft | 487 kts | 83° |
| 2026-05-08 03:49 | 42.13657 | -86.37639 | 26562 ft | 491 kts | 83° |
| 2026-05-08 03:49 | 42.13804 | -86.33025 | 26918 ft | 495 kts | 83° |
| 2026-05-08 03:49 | 42.13953 | -86.28374 | 27335 ft | 499 kts | 83° |
| 2026-05-08 03:50 | 42.14101 | -86.23690 | 27693 ft | 503 kts | 83° |
| 2026-05-08 03:50 | 42.14243 | -86.19033 | 28033 ft | 507 kts | 83° |
| 2026-05-08 03:50 | 42.14385 | -86.14265 | 28401 ft | 511 kts | 83° |
| 2026-05-08 03:50 | 42.14502 | -86.09453 | 28713 ft | 516 kts | 84° |
| 2026-05-08 03:51 | 42.14538 | -86.04592 | 29032 ft | 522 kts | 86° |
| 2026-05-08 03:51 | 42.14501 | -85.99683 | 29349 ft | 526 kts | 87° |
| 2026-05-08 03:51 | 42.14422 | -85.94734 | 29658 ft | 531 kts | 87° |
| 2026-05-08 03:51 | 42.14331 | -85.89745 | 29965 ft | 535 kts | 87° |
| 2026-05-08 03:52 | 42.14252 | -85.84722 | 30234 ft | 538 kts | 87° |
| 2026-05-08 03:52 | 42.14195 | -85.79741 | 30513 ft | 540 kts | 86° |
| 2026-05-08 03:52 | 42.14155 | -85.74667 | 30809 ft | 543 kts | 86° |
| 2026-05-08 03:52 | 42.14123 | -85.69576 | 31116 ft | 545 kts | 86° |
| 2026-05-08 03:53 | 42.14091 | -85.64464 | 31411 ft | 547 kts | 87° |
| 2026-05-08 03:53 | 42.14051 | -85.59324 | 31716 ft | 549 kts | 87° |
| 2026-05-08 03:53 | 42.13999 | -85.54187 | 32133 ft | 548 kts | 87° |
| 2026-05-08 03:53 | 42.13936 | -85.49054 | 32560 ft | 547 kts | 88° |
| 2026-05-08 03:54 | 42.13871 | -85.43929 | 32966 ft | 547 kts | 88° |
| 2026-05-08 03:54 | 42.13807 | -85.38810 | 33375 ft | 547 kts | 88° |
| 2026-05-08 03:54 | 42.13744 | -85.33751 | 33733 ft | 547 kts | 88° |
| 2026-05-08 03:54 | 42.13680 | -85.28625 | 34090 ft | 547 kts | 88° |
| 2026-05-08 03:55 | 42.13615 | -85.23503 | 34412 ft | 547 kts | 88° |
| 2026-05-08 03:55 | 42.13549 | -85.18383 | 34739 ft | 546 kts | 88° |
| 2026-05-08 03:55 | 42.13481 | -85.13265 | 34921 ft | 546 kts | 88° |
| 2026-05-08 03:56 | 42.13332 | -85.03156 | 34983 ft | 535 kts | 88° |
| 2026-05-08 03:56 | 42.13169 | -84.93238 | 34968 ft | 532 kts | 89° |
| 2026-05-08 03:57 | 42.12987 | -84.83275 | 34967 ft | 532 kts | 89° |
| 2026-05-08 03:57 | 42.12788 | -84.73314 | 34975 ft | 532 kts | 89° |
| 2026-05-08 03:58 | 42.12585 | -84.63348 | 34988 ft | 532 kts | 89° |
| 2026-05-08 03:58 | 42.12381 | -84.53460 | 34994 ft | 531 kts | 89° |
| 2026-05-08 03:59 | 42.12671 | -84.43579 | 34999 ft | 525 kts | 77° |
| 2026-05-08 03:59 | 42.13785 | -84.33861 | 35008 ft | 525 kts | 77° |
| 2026-05-08 04:00 | 42.14877 | -84.24133 | 35017 ft | 525 kts | 77° |
| 2026-05-08 04:00 | 42.15946 | -84.14479 | 35014 ft | 524 kts | 77° |
| 2026-05-08 04:01 | 42.17014 | -84.04771 | 35012 ft | 523 kts | 77° |
| 2026-05-08 04:01 | 42.18075 | -83.95070 | 35004 ft | 523 kts | 77° |
| 2026-05-08 04:02 | 42.19127 | -83.85361 | 34988 ft | 523 kts | 78° |
| 2026-05-08 04:02 | 42.20163 | -83.75725 | 34985 ft | 522 kts | 78° |
| 2026-05-08 04:03 | 42.21192 | -83.66033 | 34986 ft | 522 kts | 78° |
| 2026-05-08 04:03 | 42.22545 | -83.51451 | 35016 ft | 524 kts | 87° |
| 2026-05-08 04:04 | 42.21658 | -83.41756 | 34930 ft | 521 kts | 104° |
| 2026-05-08 04:04 | 42.19937 | -83.32322 | 34942 ft | 522 kts | 104° |
| 2026-05-08 04:05 | 42.18210 | -83.22791 | 34946 ft | 525 kts | 104° |
| 2026-05-08 04:05 | 42.16470 | -83.13225 | 34965 ft | 526 kts | 104° |
| 2026-05-08 04:06 | 42.14708 | -83.03661 | 34979 ft | 526 kts | 104° |
| 2026-05-08 04:06 | 42.12946 | -82.94165 | 34985 ft | 526 kts | 104° |
| 2026-05-08 04:07 | 42.11176 | -82.84612 | 34990 ft | 526 kts | 104° |
| 2026-05-08 04:07 | 42.09392 | -82.75058 | 35006 ft | 526 kts | 105° |
| 2026-05-08 04:08 | 42.07602 | -82.65521 | 35001 ft | 525 kts | 105° |
| 2026-05-08 04:08 | 42.05811 | -82.56065 | 34996 ft | 525 kts | 105° |
| 2026-05-08 04:09 | 42.04015 | -82.46554 | 34996 ft | 525 kts | 105° |
| 2026-05-08 04:09 | 42.02214 | -82.37041 | 35011 ft | 525 kts | 105° |
| 2026-05-08 04:10 | 42.00393 | -82.27532 | 35009 ft | 525 kts | 105° |
| 2026-05-08 04:10 | 41.98574 | -82.18101 | 35007 ft | 525 kts | 106° |
| 2026-05-08 04:11 | 41.96736 | -82.08613 | 35008 ft | 524 kts | 106° |
| 2026-05-08 04:11 | 41.94893 | -81.99141 | 35006 ft | 524 kts | 106° |
| 2026-05-08 04:12 | 41.93043 | -81.89674 | 35005 ft | 524 kts | 106° |
| 2026-05-08 04:12 | 41.91490 | -81.80122 | 35004 ft | 524 kts | 96° |
| 2026-05-08 04:13 | 41.90661 | -81.70456 | 35004 ft | 525 kts | 96° |
| 2026-05-08 04:13 | 41.89794 | -81.60733 | 35002 ft | 524 kts | 97° |
| 2026-05-08 04:14 | 41.88908 | -81.51021 | 35004 ft | 524 kts | 97° |
| 2026-05-08 04:14 | 41.88025 | -81.41309 | 35006 ft | 524 kts | 97° |
| 2026-05-08 04:15 | 41.87150 | -81.31668 | 35006 ft | 524 kts | 97° |
| 2026-05-08 04:15 | 41.86249 | -81.21960 | 35011 ft | 524 kts | 98° |
| 2026-05-08 04:16 | 41.85338 | -81.12245 | 34962 ft | 525 kts | 98° |
| 2026-05-08 04:16 | 41.84426 | -81.02519 | 34970 ft | 527 kts | 98° |
| 2026-05-08 04:17 | 41.83504 | -80.92833 | 34980 ft | 528 kts | 98° |
| 2026-05-08 04:17 | 41.82564 | -80.83064 | 34992 ft | 529 kts | 98° |
| 2026-05-08 04:18 | 41.81617 | -80.73288 | 34989 ft | 529 kts | 98° |
| 2026-05-08 04:18 | 41.80659 | -80.63503 | 34991 ft | 530 kts | 98° |
| 2026-05-08 04:19 | 41.79699 | -80.53776 | 35004 ft | 530 kts | 98° |
| 2026-05-08 04:19 | 41.78725 | -80.43983 | 34992 ft | 531 kts | 99° |
| 2026-05-08 04:20 | 41.77743 | -80.34174 | 34988 ft | 532 kts | 99° |
| 2026-05-08 04:20 | 41.76748 | -80.24357 | 34990 ft | 532 kts | 99° |
| 2026-05-08 04:21 | 41.75752 | -80.14596 | 34998 ft | 533 kts | 99° |
| 2026-05-08 04:21 | 41.74739 | -80.04766 | 34995 ft | 533 kts | 99° |
| 2026-05-08 04:22 | 41.73717 | -79.94923 | 35000 ft | 534 kts | 99° |
| 2026-05-08 04:22 | 41.72686 | -79.85082 | 35009 ft | 534 kts | 99° |
| 2026-05-08 04:23 | 41.71646 | -79.75230 | 35008 ft | 534 kts | 99° |
| 2026-05-08 04:23 | 41.70604 | -79.65451 | 35015 ft | 535 kts | 99° |
| 2026-05-08 04:24 | 41.69542 | -79.55596 | 35018 ft | 535 kts | 99° |
| 2026-05-08 04:24 | 41.68475 | -79.45736 | 35023 ft | 535 kts | 99° |
| 2026-05-08 04:25 | 41.67405 | -79.35878 | 35016 ft | 536 kts | 99° |
| 2026-05-08 04:25 | 41.66316 | -79.26019 | 35015 ft | 536 kts | 99° |
| 2026-05-08 04:26 | 41.65221 | -79.16233 | 35015 ft | 536 kts | 99° |
| 2026-05-08 04:26 | 41.64116 | -79.06384 | 35011 ft | 536 kts | 99° |
| 2026-05-08 04:27 | 41.63011 | -78.96535 | 35000 ft | 536 kts | 99° |
| 2026-05-08 04:27 | 41.61895 | -78.86751 | 35002 ft | 536 kts | 100° |
| 2026-05-08 04:28 | 41.60762 | -78.76913 | 34999 ft | 536 kts | 100° |
| 2026-05-08 04:28 | 41.59630 | -78.67065 | 34994 ft | 536 kts | 100° |
| 2026-05-08 04:29 | 41.58483 | -78.57223 | 34995 ft | 536 kts | 100° |
| 2026-05-08 04:29 | 41.57334 | -78.47460 | 35001 ft | 535 kts | 100° |
| 2026-05-08 04:30 | 41.56178 | -78.37643 | 35003 ft | 535 kts | 100° |
| 2026-05-08 04:30 | 41.55007 | -78.27836 | 35007 ft | 535 kts | 100° |
| 2026-05-08 04:31 | 41.53831 | -78.18029 | 35011 ft | 535 kts | 100° |
| 2026-05-08 04:31 | 41.52658 | -78.08299 | 35005 ft | 534 kts | 100° |
| 2026-05-08 04:32 | 41.51464 | -77.98509 | 35006 ft | 535 kts | 101° |
| 2026-05-08 04:32 | 41.50191 | -77.88751 | 34991 ft | 534 kts | 102° |
| 2026-05-08 04:33 | 41.48787 | -77.79032 | 34993 ft | 533 kts | 103° |
| 2026-05-08 04:33 | 41.47356 | -77.69330 | 34998 ft | 533 kts | 102° |
| 2026-05-08 04:34 | 41.45969 | -77.59704 | 34991 ft | 533 kts | 102° |
| 2026-05-08 04:34 | 41.44585 | -77.50007 | 34993 ft | 532 kts | 103° |
| 2026-05-08 04:35 | 41.43193 | -77.40337 | 34996 ft | 531 kts | 103° |
| 2026-05-08 04:35 | 41.41786 | -77.30680 | 34992 ft | 531 kts | 103° |
| 2026-05-08 04:36 | 41.40377 | -77.21105 | 34959 ft | 530 kts | 103° |
| 2026-05-08 04:36 | 41.38945 | -77.11472 | 34988 ft | 530 kts | 103° |
| 2026-05-08 04:37 | 41.37515 | -77.01848 | 34986 ft | 530 kts | 103° |
| 2026-05-08 04:37 | 41.36083 | -76.92230 | 34928 ft | 530 kts | 103° |
| 2026-05-08 04:38 | 41.35366 | -76.87439 | 34650 ft | 526 kts | 103° |
| 2026-05-08 04:38 | 41.34648 | -76.82665 | 34073 ft | 527 kts | 104° |
| 2026-05-08 04:38 | 41.33895 | -76.77970 | 33523 ft | 524 kts | 108° |
| 2026-05-08 04:38 | 41.32778 | -76.73403 | 33074 ft | 516 kts | 114° |
| 2026-05-08 04:39 | 41.31572 | -76.68922 | 32589 ft | 513 kts | 114° |
| 2026-05-08 04:39 | 41.30377 | -76.64462 | 32113 ft | 510 kts | 114° |
| 2026-05-08 04:39 | 41.29192 | -76.60028 | 31633 ft | 508 kts | 114° |
| 2026-05-08 04:39 | 41.28014 | -76.55611 | 31170 ft | 506 kts | 114° |
| 2026-05-08 04:40 | 41.26841 | -76.51215 | 30706 ft | 504 kts | 115° |
| 2026-05-08 04:40 | 41.25669 | -76.46839 | 30236 ft | 501 kts | 116° |
| 2026-05-08 04:40 | 41.24513 | -76.42542 | 29751 ft | 500 kts | 116° |
| 2026-05-08 04:40 | 41.23345 | -76.38215 | 29315 ft | 496 kts | 116° |
| 2026-05-08 04:41 | 41.22184 | -76.33921 | 28860 ft | 492 kts | 116° |
| 2026-05-08 04:41 | 41.21028 | -76.29666 | 28447 ft | 488 kts | 116° |
| 2026-05-08 04:41 | 41.19877 | -76.25442 | 28029 ft | 485 kts | 116° |
| 2026-05-08 04:41 | 41.18734 | -76.21248 | 27613 ft | 482 kts | 115° |
| 2026-05-08 04:42 | 41.17597 | -76.17081 | 27193 ft | 478 kts | 116° |
| 2026-05-08 04:42 | 41.16467 | -76.12939 | 26763 ft | 475 kts | 116° |
| 2026-05-08 04:42 | 41.15346 | -76.08835 | 26373 ft | 472 kts | 116° |
| 2026-05-08 04:42 | 41.14243 | -76.04808 | 25973 ft | 470 kts | 116° |
| 2026-05-08 04:43 | 41.13133 | -76.00742 | 25551 ft | 468 kts | 116° |
| 2026-05-08 04:43 | 41.12026 | -75.96698 | 25109 ft | 464 kts | 117° |
| 2026-05-08 04:43 | 41.10925 | -75.92687 | 24634 ft | 463 kts | 117° |
| 2026-05-08 04:43 | 41.09820 | -75.88682 | 24185 ft | 461 kts | 117° |
| 2026-05-08 04:44 | 41.08717 | -75.84698 | 23745 ft | 460 kts | 117° |
| 2026-05-08 04:44 | 41.07619 | -75.80731 | 23367 ft | 455 kts | 117° |
| 2026-05-08 04:44 | 41.06531 | -75.76795 | 22831 ft | 453 kts | 117° |
| 2026-05-08 04:44 | 41.05467 | -75.72956 | 22373 ft | 449 kts | 117° |
| 2026-05-08 04:45 | 41.04394 | -75.69091 | 22010 ft | 443 kts | 117° |
| 2026-05-08 04:45 | 41.03331 | -75.65268 | 21486 ft | 442 kts | 116° |
| 2026-05-08 04:45 | 41.02276 | -75.61481 | 21179 ft | 434 kts | 116° |
| 2026-05-08 04:45 | 41.01246 | -75.57772 | 20494 ft | 423 kts | 116° |
| 2026-05-08 04:46 | 41.00259 | -75.54207 | 20097 ft | 401 kts | 116° |
| 2026-05-08 04:46 | 40.99323 | -75.50825 | 19686 ft | 383 kts | 116° |
| 2026-05-08 04:46 | 40.98425 | -75.47592 | 19287 ft | 366 kts | 116° |
| 2026-05-08 04:46 | 40.97552 | -75.44476 | 18919 ft | 361 kts | 116° |
| 2026-05-08 04:47 | 40.96685 | -75.41407 | 18540 ft | 361 kts | 116° |
| 2026-05-08 04:47 | 40.95805 | -75.38298 | 18170 ft | 360 kts | 116° |
| 2026-05-08 04:47 | 40.94925 | -75.35196 | 17783 ft | 360 kts | 116° |
| 2026-05-08 04:47 | 40.94056 | -75.32117 | 17464 ft | 356 kts | 116° |
| 2026-05-08 04:48 | 40.93195 | -75.29064 | 17104 ft | 353 kts | 115° |
| 2026-05-08 04:48 | 40.92339 | -75.26031 | 16744 ft | 351 kts | 115° |
| 2026-05-08 04:48 | 40.91488 | -75.23021 | 16369 ft | 349 kts | 115° |
| 2026-05-08 04:48 | 40.90640 | -75.20023 | 16001 ft | 347 kts | 115° |
| 2026-05-08 04:49 | 40.89810 | -75.17089 | 15646 ft | 345 kts | 114° |
| 2026-05-08 04:49 | 40.88970 | -75.14129 | 15268 ft | 343 kts | 114° |
| 2026-05-08 04:49 | 40.88132 | -75.11188 | 14907 ft | 341 kts | 114° |
| 2026-05-08 04:49 | 40.87299 | -75.08260 | 14545 ft | 339 kts | 114° |
| 2026-05-08 04:50 | 40.86478 | -75.05348 | 14172 ft | 337 kts | 113° |
| 2026-05-08 04:50 | 40.85665 | -75.02454 | 13813 ft | 335 kts | 113° |
| 2026-05-08 04:50 | 40.84856 | -74.99578 | 13418 ft | 333 kts | 112° |
| 2026-05-08 04:50 | 40.84050 | -74.96723 | 13068 ft | 330 kts | 113° |
| 2026-05-08 04:51 | 40.83248 | -74.93894 | 12706 ft | 327 kts | 113° |
| 2026-05-08 04:51 | 40.82346 | -74.91211 | 12345 ft | 320 kts | 128° |
| 2026-05-08 04:51 | 40.80961 | -74.88963 | 12003 ft | 314 kts | 135° |
| 2026-05-08 04:51 | 40.79538 | -74.86794 | 11644 ft | 311 kts | 135° |
| 2026-05-08 04:52 | 40.78118 | -74.84650 | 11314 ft | 309 kts | 135° |
| 2026-05-08 04:52 | 40.76704 | -74.82524 | 10945 ft | 307 kts | 135° |
| 2026-05-08 04:52 | 40.75301 | -74.80409 | 10611 ft | 305 kts | 135° |
| 2026-05-08 04:52 | 40.73904 | -74.78303 | 10269 ft | 304 kts | 135° |
| 2026-05-08 04:53 | 40.72517 | -74.76208 | 9928 ft | 303 kts | 135° |
| 2026-05-08 04:53 | 40.71157 | -74.74147 | 9572 ft | 301 kts | 135° |
| 2026-05-08 04:53 | 40.69785 | -74.72069 | 9233 ft | 299 kts | 135° |
| 2026-05-08 04:53 | 40.68424 | -74.70013 | 8889 ft | 297 kts | 135° |
| 2026-05-08 04:54 | 40.67074 | -74.67976 | 8549 ft | 294 kts | 134° |
| 2026-05-08 04:54 | 40.65734 | -74.65955 | 8218 ft | 292 kts | 134° |
| 2026-05-08 04:54 | 40.64403 | -74.63949 | 7883 ft | 290 kts | 134° |
| 2026-05-08 04:54 | 40.63083 | -74.61963 | 7550 ft | 287 kts | 134° |
| 2026-05-08 04:55 | 40.61770 | -74.59989 | 7226 ft | 285 kts | 134° |
| 2026-05-08 04:55 | 40.60483 | -74.58058 | 6896 ft | 283 kts | 134° |
| 2026-05-08 04:55 | 40.59189 | -74.56116 | 6568 ft | 282 kts | 134° |
| 2026-05-08 04:55 | 40.57902 | -74.54182 | 6248 ft | 280 kts | 133° |
| 2026-05-08 04:56 | 40.56623 | -74.52261 | 5917 ft | 278 kts | 133° |
| 2026-05-08 04:56 | 40.55355 | -74.50356 | 5587 ft | 276 kts | 133° |
| 2026-05-08 04:56 | 40.54095 | -74.48471 | 5263 ft | 273 kts | 133° |
| 2026-05-08 04:56 | 40.52844 | -74.46600 | 4940 ft | 271 kts | 133° |
| 2026-05-08 04:57 | 40.51601 | -74.44740 | 4623 ft | 270 kts | 133° |
| 2026-05-08 04:57 | 40.50392 | -74.42868 | 4300 ft | 268 kts | 126° |
| 2026-05-08 04:57 | 40.49579 | -74.40723 | 3987 ft | 266 kts | 107° |
| 2026-05-08 04:57 | 40.49319 | -74.38384 | 3903 ft | 253 kts | 89° |
| 2026-05-08 04:58 | 40.49573 | -74.36158 | 3801 ft | 241 kts | 72° |
| 2026-05-08 04:58 | 40.50065 | -74.34105 | 3692 ft | 230 kts | 72° |
| 2026-05-08 04:58 | 40.50530 | -74.32129 | 3598 ft | 224 kts | 72° |
| 2026-05-08 04:58 | 40.50987 | -74.30174 | 3499 ft | 223 kts | 72° |
| 2026-05-08 04:59 | 40.51637 | -74.28342 | 3392 ft | 221 kts | 52° |
| 2026-05-08 04:59 | 40.52748 | -74.26964 | 3169 ft | 221 kts | 30° |
| 2026-05-08 04:59 | 40.54103 | -74.26082 | 2975 ft | 216 kts | 25° |
| 2026-05-08 04:59 | 40.55458 | -74.25225 | 2732 ft | 215 kts | 26° |
| 2026-05-08 05:00 | 40.56784 | -74.24385 | 2459 ft | 214 kts | 26° |
| 2026-05-08 05:00 | 40.58119 | -74.23540 | 2178 ft | 212 kts | 26° |
| 2026-05-08 05:00 | 40.59445 | -74.22700 | 1898 ft | 211 kts | 26° |
| 2026-05-08 05:00 | 40.60730 | -74.21885 | 1646 ft | 196 kts | 26° |
| 2026-05-08 05:01 | 40.61871 | -74.21162 | 1400 ft | 166 kts | 26° |
| 2026-05-08 05:01 | 40.62844 | -74.20545 | 1166 ft | 147 kts | 26° |
| 2026-05-08 05:01 | 40.63743 | -74.19975 | 967 ft | 141 kts | 26° |
| 2026-05-08 05:01 | 40.64623 | -74.19416 | 787 ft | 140 kts | 25° |
| 2026-05-08 05:02 | 40.65491 | -74.18866 | 612 ft | 141 kts | 24° |
| 2026-05-08 05:02 | 40.66376 | -74.18303 | 420 ft | 142 kts | 24° |
| 2026-05-08 05:02 | 40.67267 | -74.17735 | 239 ft | 142 kts | 24° |
| 2026-05-08 05:02 | 40.68161 | -74.17163 | 41 ft | 143 kts | 24° |
| 2026-05-08 05:03 | 40.68964 | -74.16661 | 23 ft | 109 kts | 25° |
| 2026-05-08 05:03 | 40.69398 | -74.16385 | 27 ft | 31 kts | 26° |
| 2026-05-08 05:03 | 40.69590 | -74.16295 | 22 ft | 29 kts | 3° |
| 2026-05-08 05:03 | 40.69701 | -74.16305 | 22 ft | 10 kts | 347° |
| 2026-05-08 05:04 | 40.69721 | -74.16375 | 22 ft | 10 kts | 238° |
| 2026-05-08 05:04 | 40.69669 | -74.16436 | 22 ft | 11 kts | 204° |
| 2026-05-08 05:04 | 40.69596 | -74.16479 | 22 ft | 12 kts | 204° |
| 2026-05-08 05:04 | 40.69516 | -74.16528 | 24 ft | 13 kts | 205° |
| 2026-05-08 05:05 | 40.69428 | -74.16583 | 23 ft | 15 kts | 205° |
| 2026-05-08 05:05 | 40.69331 | -74.16645 | 25 ft | 16 kts | 205° |
| 2026-05-08 05:05 | 40.69228 | -74.16710 | 23 ft | 17 kts | 205° |
| 2026-05-08 05:05 | 40.69117 | -74.16781 | 23 ft | 18 kts | 206° |
| 2026-05-08 05:06 | 40.69044 | -74.16830 | 23 ft | 9 kts | 214° |
| 2026-05-08 05:06 | 40.69034 | -74.16905 | 23 ft | 10 kts | 288° |
| 2026-05-08 05:06 | 40.69064 | -74.16995 | 24 ft | 12 kts | 295° |
| 2026-05-08 05:06 | 40.69099 | -74.17092 | 22 ft | 6 kts | 295° |
| 2026-05-08 05:07 | 40.69102 | -74.17101 | 22 ft | 2 kts | 295° |
| 2026-05-08 05:07 | 40.69106 | -74.17111 | 22 ft | 1 kts | 295° |
| 2026-05-08 05:07 | 40.69114 | -74.17125 | 24 ft | 2 kts | 317° |
| 2026-05-08 05:07 | 40.69127 | -74.17117 | 22 ft | 3 kts | 39° |
| 2026-05-08 05:08 | 40.69169 | -74.17073 | 22 ft | 12 kts | 31° |
| 2026-05-08 05:08 | 40.69224 | -74.17109 | 22 ft | 10 kts | 300° |
| 2026-05-08 05:08 | 40.69260 | -74.17201 | 22 ft | 12 kts | 299° |
| 2026-05-08 05:08 | 40.69301 | -74.17293 | 24 ft | 8 kts | 301° |
| 2026-05-08 05:09 | 40.69316 | -74.17328 | 22 ft | 1 kts | 295° |
| 2026-05-08 05:09 | 40.69321 | -74.17344 | 22 ft | 1 kts | 294° |
| 2026-05-08 05:09 | 40.69325 | -74.17356 | 22 ft | 2 kts | 294° |
| 2026-05-08 05:09 | 40.69331 | -74.17375 | 24 ft | 2 kts | 290° |
| 2026-05-08 05:10 | 40.69336 | -74.17402 | 22 ft | 4 kts | 282° |
| 2026-05-08 05:10 | 40.69375 | -74.17482 | 23 ft | 5 kts | 330° |
| 2026-05-08 05:10 | 40.69406 | -74.17496 | 22 ft | 5 kts | 12° |
| 2026-05-08 05:11 | 40.69428 | -74.17485 | 24 ft | 2 kts | 18° |
| 2026-05-08 05:11 | 40.69429 | -74.17484 | 22 ft | 0 kts | 17° |